sensor_id;sensor_type;location;lat;lon;timestamp;P1;durP1;ratioP1;P2;durP2;ratioP2
34920;SDS011;21128;50.016;20.002;2022-07-04T00:02:05;5.40;;;3.60;;
34920;SDS011;21128;50.016;20.002;2022-07-04T00:04:32;4.47;;;3.47;;
34920;SDS011;21128;50.016;20.002;2022-07-04T00:06:58;4.97;;;3.50;;
34920;SDS011;21128;50.016;20.002;2022-07-04T00:09:25;6.83;;;3.93;;
34920;SDS011;21128;50.016;20.002;2022-07-04T00:11:52;4.27;;;3.90;;
34920;SDS011;21128;50.016;20.002;2022-07-04T00:14:19;6.07;;;4.13;;
34920;SDS011;21128;50.016;20.002;2022-07-04T00:16:52;9.23;;;4.83;;
34920;SDS011;21128;50.016;20.002;2022-07-04T00:19:19;6.90;;;4.77;;
34920;SDS011;21128;50.016;20.002;2022-07-04T00:21:46;4.00;;;3.60;;
34920;SDS011;21128;50.016;20.002;2022-07-04T00:24:14;10.20;;;4.47;;
34920;SDS011;21128;50.016;20.002;2022-07-04T00:26:40;4.77;;;4.27;;
34920;SDS011;21128;50.016;20.002;2022-07-04T00:29:07;6.35;;;4.40;;
34920;SDS011;21128;50.016;20.002;2022-07-04T00:31:34;6.17;;;4.07;;
34920;SDS011;21128;50.016;20.002;2022-07-04T00:34:20;5.20;;;4.07;;
34920;SDS011;21128;50.016;20.002;2022-07-04T00:36:47;7.30;;;4.20;;
34920;SDS011;21128;50.016;20.002;2022-07-04T00:39:14;7.63;;;4.20;;
34920;SDS011;21128;50.016;20.002;2022-07-04T00:41:41;6.47;;;4.50;;
34920;SDS011;21128;50.016;20.002;2022-07-04T00:46:43;5.63;;;4.47;;
34920;SDS011;21128;50.016;20.002;2022-07-04T00:49:12;6.37;;;4.60;;
34920;SDS011;21128;50.016;20.002;2022-07-04T00:51:42;6.63;;;3.87;;
34920;SDS011;21128;50.016;20.002;2022-07-04T00:54:12;5.63;;;4.63;;
34920;SDS011;21128;50.016;20.002;2022-07-04T00:56:41;5.57;;;4.70;;
34920;SDS011;21128;50.016;20.002;2022-07-04T00:59:16;5.37;;;4.17;;
34920;SDS011;21128;50.016;20.002;2022-07-04T01:01:44;7.07;;;3.73;;
34920;SDS011;21128;50.016;20.002;2022-07-04T01:04:11;6.22;;;4.30;;
34920;SDS011;21128;50.016;20.002;2022-07-04T01:06:38;6.50;;;4.10;;
34920;SDS011;21128;50.016;20.002;2022-07-04T01:09:05;5.60;;;4.03;;
34920;SDS011;21128;50.016;20.002;2022-07-04T01:11:32;5.75;;;4.40;;
34920;SDS011;21128;50.016;20.002;2022-07-04T01:13:58;6.90;;;4.33;;
34920;SDS011;21128;50.016;20.002;2022-07-04T01:16:25;6.00;;;3.90;;
34920;SDS011;21128;50.016;20.002;2022-07-04T01:18:56;5.77;;;4.13;;
34920;SDS011;21128;50.016;20.002;2022-07-04T01:21:22;7.10;;;5.00;;
34920;SDS011;21128;50.016;20.002;2022-07-04T01:23:49;5.03;;;4.40;;
34920;SDS011;21128;50.016;20.002;2022-07-04T01:26:16;10.90;;;4.97;;
34920;SDS011;21128;50.016;20.002;2022-07-04T01:28:43;4.92;;;4.10;;
34920;SDS011;21128;50.016;20.002;2022-07-04T01:31:10;5.80;;;4.20;;
34920;SDS011;21128;50.016;20.002;2022-07-04T01:33:57;6.70;;;4.50;;
34920;SDS011;21128;50.016;20.002;2022-07-04T01:36:24;5.70;;;4.30;;
34920;SDS011;21128;50.016;20.002;2022-07-04T01:38:51;5.37;;;4.67;;
34920;SDS011;21128;50.016;20.002;2022-07-04T01:41:18;5.40;;;4.90;;
34920;SDS011;21128;50.016;20.002;2022-07-04T01:43:52;6.97;;;4.80;;
34920;SDS011;21128;50.016;20.002;2022-07-04T01:46:18;5.90;;;4.90;;
34920;SDS011;21128;50.016;20.002;2022-07-04T01:48:45;7.28;;;4.78;;
34920;SDS011;21128;50.016;20.002;2022-07-04T01:51:12;7.40;;;5.40;;
34920;SDS011;21128;50.016;20.002;2022-07-04T01:53:39;7.67;;;5.10;;
34920;SDS011;21128;50.016;20.002;2022-07-04T01:56:05;7.40;;;4.20;;
34920;SDS011;21128;50.016;20.002;2022-07-04T01:58:32;8.10;;;4.60;;
34920;SDS011;21128;50.016;20.002;2022-07-04T02:01:05;6.58;;;4.80;;
34920;SDS011;21128;50.016;20.002;2022-07-04T02:03:51;5.87;;;4.90;;
34920;SDS011;21128;50.016;20.002;2022-07-04T02:08:50;6.27;;;4.83;;
34920;SDS011;21128;50.016;20.002;2022-07-04T02:11:37;5.50;;;4.80;;
34920;SDS011;21128;50.016;20.002;2022-07-04T02:14:25;5.90;;;5.13;;
34920;SDS011;21128;50.016;20.002;2022-07-04T02:16:52;6.95;;;4.58;;
34920;SDS011;21128;50.016;20.002;2022-07-04T02:19:19;7.90;;;5.00;;
34920;SDS011;21128;50.016;20.002;2022-07-04T02:21:47;6.20;;;4.80;;
34920;SDS011;21128;50.016;20.002;2022-07-04T02:24:13;6.50;;;5.07;;
34920;SDS011;21128;50.016;20.002;2022-07-04T02:26:40;6.53;;;5.10;;
34920;SDS011;21128;50.016;20.002;2022-07-04T02:29:07;9.20;;;5.60;;
34920;SDS011;21128;50.016;20.002;2022-07-04T02:31:34;8.00;;;5.25;;
34920;SDS011;21128;50.016;20.002;2022-07-04T02:34:13;6.73;;;4.90;;
34920;SDS011;21128;50.016;20.002;2022-07-04T02:36:40;12.03;;;5.10;;
34920;SDS011;21128;50.016;20.002;2022-07-04T02:39:07;9.43;;;5.23;;
34920;SDS011;21128;50.016;20.002;2022-07-04T02:41:34;6.37;;;5.43;;
34920;SDS011;21128;50.016;20.002;2022-07-04T02:44:01;10.05;;;5.05;;
34920;SDS011;21128;50.016;20.002;2022-07-04T02:46:28;7.75;;;4.75;;
34920;SDS011;21128;50.016;20.002;2022-07-04T02:48:55;5.43;;;4.70;;
34920;SDS011;21128;50.016;20.002;2022-07-04T02:51:22;9.40;;;5.60;;
34920;SDS011;21128;50.016;20.002;2022-07-04T02:53:48;9.00;;;5.90;;
34920;SDS011;21128;50.016;20.002;2022-07-04T02:56:15;7.30;;;5.33;;
34920;SDS011;21128;50.016;20.002;2022-07-04T02:58:42;11.70;;;5.30;;
34920;SDS011;21128;50.016;20.002;2022-07-04T03:01:16;8.03;;;5.20;;
34920;SDS011;21128;50.016;20.002;2022-07-04T03:03:45;11.90;;;8.53;;
34920;SDS011;21128;50.016;20.002;2022-07-04T03:06:20;11.10;;;6.70;;
34920;SDS011;21128;50.016;20.002;2022-07-04T03:08:46;7.27;;;6.03;;
34920;SDS011;21128;50.016;20.002;2022-07-04T03:11:13;8.60;;;5.50;;
34920;SDS011;21128;50.016;20.002;2022-07-04T03:13:40;9.30;;;5.77;;
34920;SDS011;21128;50.016;20.002;2022-07-04T03:16:07;10.35;;;6.08;;
34920;SDS011;21128;50.016;20.002;2022-07-04T03:18:34;7.30;;;5.27;;
34920;SDS011;21128;50.016;20.002;2022-07-04T03:21:01;7.67;;;5.03;;
34920;SDS011;21128;50.016;20.002;2022-07-04T03:23:31;15.03;;;6.23;;
34920;SDS011;21128;50.016;20.002;2022-07-04T03:25:59;13.47;;;5.87;;
34920;SDS011;21128;50.016;20.002;2022-07-04T03:28:26;10.23;;;5.93;;
34920;SDS011;21128;50.016;20.002;2022-07-04T03:31:01;11.77;;;5.83;;
34920;SDS011;21128;50.016;20.002;2022-07-04T03:33:27;9.78;;;5.67;;
34920;SDS011;21128;50.016;20.002;2022-07-04T03:36:01;9.97;;;5.57;;
34920;SDS011;21128;50.016;20.002;2022-07-04T03:38:28;8.50;;;5.27;;
34920;SDS011;21128;50.016;20.002;2022-07-04T03:40:54;10.75;;;5.55;;
34920;SDS011;21128;50.016;20.002;2022-07-04T03:43:21;11.23;;;5.67;;
34920;SDS011;21128;50.016;20.002;2022-07-04T03:45:55;12.70;;;5.63;;
34920;SDS011;21128;50.016;20.002;2022-07-04T03:48:28;11.20;;;5.97;;
34920;SDS011;21128;50.016;20.002;2022-07-04T03:50:56;10.17;;;6.10;;
34920;SDS011;21128;50.016;20.002;2022-07-04T03:53:23;9.50;;;5.57;;
34920;SDS011;21128;50.016;20.002;2022-07-04T03:55:50;7.47;;;5.30;;
34920;SDS011;21128;50.016;20.002;2022-07-04T03:58:16;9.08;;;5.55;;
34920;SDS011;21128;50.016;20.002;2022-07-04T04:00:44;8.80;;;5.60;;
34920;SDS011;21128;50.016;20.002;2022-07-04T04:03:11;10.10;;;6.22;;
34920;SDS011;21128;50.016;20.002;2022-07-04T04:05:57;8.43;;;5.60;;
34920;SDS011;21128;50.016;20.002;2022-07-04T04:08:23;11.80;;;6.10;;
34920;SDS011;21128;50.016;20.002;2022-07-04T04:10:50;7.92;;;5.80;;
34920;SDS011;21128;50.016;20.002;2022-07-04T04:13:17;8.60;;;5.07;;
34920;SDS011;21128;50.016;20.002;2022-07-04T04:15:45;9.57;;;6.27;;
34920;SDS011;21128;50.016;20.002;2022-07-04T04:18:18;7.37;;;5.53;;
34920;SDS011;21128;50.016;20.002;2022-07-04T04:20:45;8.23;;;5.23;;
34920;SDS011;21128;50.016;20.002;2022-07-04T04:23:12;7.43;;;5.10;;
34920;SDS011;21128;50.016;20.002;2022-07-04T04:25:38;8.20;;;5.67;;
34920;SDS011;21128;50.016;20.002;2022-07-04T04:28:12;7.37;;;5.67;;
34920;SDS011;21128;50.016;20.002;2022-07-04T04:30:38;7.10;;;5.47;;
34920;SDS011;21128;50.016;20.002;2022-07-04T04:33:05;7.05;;;5.70;;
34920;SDS011;21128;50.016;20.002;2022-07-04T04:35:39;8.63;;;5.90;;
34920;SDS011;21128;50.016;20.002;2022-07-04T04:38:05;6.97;;;5.33;;
34920;SDS011;21128;50.016;20.002;2022-07-04T04:40:32;8.68;;;5.65;;
34920;SDS011;21128;50.016;20.002;2022-07-04T04:42:59;7.23;;;5.70;;
34920;SDS011;21128;50.016;20.002;2022-07-04T04:45:33;11.33;;;5.60;;
34920;SDS011;21128;50.016;20.002;2022-07-04T04:47:59;7.87;;;6.00;;
34920;SDS011;21128;50.016;20.002;2022-07-04T04:50:26;13.23;;;5.83;;
34920;SDS011;21128;50.016;20.002;2022-07-04T04:52:53;7.03;;;5.67;;
34920;SDS011;21128;50.016;20.002;2022-07-04T04:55:20;7.50;;;5.35;;
34920;SDS011;21128;50.016;20.002;2022-07-04T04:57:47;13.23;;;6.37;;
34920;SDS011;21128;50.016;20.002;2022-07-04T05:00:13;7.90;;;5.30;;
34920;SDS011;21128;50.016;20.002;2022-07-04T05:02:40;7.73;;;5.57;;
34920;SDS011;21128;50.016;20.002;2022-07-04T05:05:07;6.13;;;5.53;;
34920;SDS011;21128;50.016;20.002;2022-07-04T05:07:34;11.22;;;5.72;;
34920;SDS011;21128;50.016;20.002;2022-07-04T05:10:02;6.23;;;5.23;;
34920;SDS011;21128;50.016;20.002;2022-07-04T05:12:29;7.43;;;5.43;;
34920;SDS011;21128;50.016;20.002;2022-07-04T05:15:03;7.57;;;6.00;;
34920;SDS011;21128;50.016;20.002;2022-07-04T05:17:30;8.50;;;5.97;;
34920;SDS011;21128;50.016;20.002;2022-07-04T05:19:56;9.40;;;5.70;;
34920;SDS011;21128;50.016;20.002;2022-07-04T05:22:23;8.40;;;5.90;;
34920;SDS011;21128;50.016;20.002;2022-07-04T05:24:50;8.67;;;5.50;;
34920;SDS011;21128;50.016;20.002;2022-07-04T05:27:17;11.57;;;5.97;;
34920;SDS011;21128;50.016;20.002;2022-07-04T05:29:44;6.80;;;6.07;;
34920;SDS011;21128;50.016;20.002;2022-07-04T05:32:11;8.15;;;6.00;;
34920;SDS011;21128;50.016;20.002;2022-07-04T05:34:51;9.63;;;6.20;;
34920;SDS011;21128;50.016;20.002;2022-07-04T05:37:18;8.23;;;5.43;;
34920;SDS011;21128;50.016;20.002;2022-07-04T05:39:51;8.07;;;5.90;;
34920;SDS011;21128;50.016;20.002;2022-07-04T05:42:17;9.80;;;6.53;;
34920;SDS011;21128;50.016;20.002;2022-07-04T05:44:44;7.50;;;6.05;;
34920;SDS011;21128;50.016;20.002;2022-07-04T05:47:11;8.20;;;6.03;;
34920;SDS011;21128;50.016;20.002;2022-07-04T05:49:38;9.00;;;6.33;;
34920;SDS011;21128;50.016;20.002;2022-07-04T05:52:05;9.53;;;7.27;;
34920;SDS011;21128;50.016;20.002;2022-07-04T05:54:32;9.30;;;7.95;;
34920;SDS011;21128;50.016;20.002;2022-07-04T05:56:59;10.07;;;8.30;;
34920;SDS011;21128;50.016;20.002;2022-07-04T05:59:28;15.17;;;8.77;;
34920;SDS011;21128;50.016;20.002;2022-07-04T06:01:55;10.93;;;8.57;;
34920;SDS011;21128;50.016;20.002;2022-07-04T06:04:22;10.75;;;8.20;;
34920;SDS011;21128;50.016;20.002;2022-07-04T06:06:49;11.77;;;7.63;;
34920;SDS011;21128;50.016;20.002;2022-07-04T06:09:16;11.97;;;7.80;;
34920;SDS011;21128;50.016;20.002;2022-07-04T06:11:43;8.50;;;7.60;;
34920;SDS011;21128;50.016;20.002;2022-07-04T06:14:10;10.03;;;7.77;;
34920;SDS011;21128;50.016;20.002;2022-07-04T06:16:44;11.43;;;8.75;;
34920;SDS011;21128;50.016;20.002;2022-07-04T06:19:10;10.87;;;8.90;;
34920;SDS011;21128;50.016;20.002;2022-07-04T06:21:37;10.10;;;8.70;;
34920;SDS011;21128;50.016;20.002;2022-07-04T06:24:04;9.67;;;8.67;;
34920;SDS011;21128;50.016;20.002;2022-07-04T06:26:31;11.17;;;9.23;;
34920;SDS011;21128;50.016;20.002;2022-07-04T06:28:58;13.03;;;9.73;;
34920;SDS011;21128;50.016;20.002;2022-07-04T06:31:25;10.10;;;8.83;;
34920;SDS011;21128;50.016;20.002;2022-07-04T06:33:52;16.93;;;9.57;;
34920;SDS011;21128;50.016;20.002;2022-07-04T06:36:57;11.73;;;9.20;;
34920;SDS011;21128;50.016;20.002;2022-07-04T06:39:25;12.60;;;9.60;;
34920;SDS011;21128;50.016;20.002;2022-07-04T06:41:51;13.17;;;9.37;;
34920;SDS011;21128;50.016;20.002;2022-07-04T06:44:18;12.93;;;9.33;;
34920;SDS011;21128;50.016;20.002;2022-07-04T06:46:52;14.40;;;10.00;;
34920;SDS011;21128;50.016;20.002;2022-07-04T06:49:20;12.60;;;9.30;;
34920;SDS011;21128;50.016;20.002;2022-07-04T06:51:46;17.37;;;9.80;;
34920;SDS011;21128;50.016;20.002;2022-07-04T06:54:13;13.50;;;9.70;;
34920;SDS011;21128;50.016;20.002;2022-07-04T06:56:40;11.70;;;9.33;;
34920;SDS011;21128;50.016;20.002;2022-07-04T06:59:09;17.03;;;9.57;;
34920;SDS011;21128;50.016;20.002;2022-07-04T07:01:36;13.30;;;9.37;;
34920;SDS011;21128;50.016;20.002;2022-07-04T07:04:03;13.60;;;9.83;;
34920;SDS011;21128;50.016;20.002;2022-07-04T07:06:30;10.27;;;9.13;;
34920;SDS011;21128;50.016;20.002;2022-07-04T07:08:56;10.67;;;9.57;;
34920;SDS011;21128;50.016;20.002;2022-07-04T07:11:23;13.33;;;9.23;;
34920;SDS011;21128;50.016;20.002;2022-07-04T07:13:50;14.77;;;9.10;;
34920;SDS011;21128;50.016;20.002;2022-07-04T07:16:20;10.90;;;8.60;;
34920;SDS011;21128;50.016;20.002;2022-07-04T07:18:53;10.72;;;8.50;;
34920;SDS011;21128;50.016;20.002;2022-07-04T07:21:20;11.40;;;8.35;;
34920;SDS011;21128;50.016;20.002;2022-07-04T07:23:47;12.20;;;9.40;;
34920;SDS011;21128;50.016;20.002;2022-07-04T07:26:14;15.15;;;9.20;;
34920;SDS011;21128;50.016;20.002;2022-07-04T07:28:40;9.27;;;8.30;;
34920;SDS011;21128;50.016;20.002;2022-07-04T07:31:07;10.43;;;7.90;;
34920;SDS011;21128;50.016;20.002;2022-07-04T07:33:34;11.03;;;8.27;;
34920;SDS011;21128;50.016;20.002;2022-07-04T07:36:15;9.17;;;8.27;;
34920;SDS011;21128;50.016;20.002;2022-07-04T07:38:41;14.05;;;7.95;;
34920;SDS011;21128;50.016;20.002;2022-07-04T07:41:09;12.13;;;8.07;;
34920;SDS011;21128;50.016;20.002;2022-07-04T07:43:36;9.40;;;8.10;;
34920;SDS011;21128;50.016;20.002;2022-07-04T07:46:10;8.70;;;7.50;;
34920;SDS011;21128;50.016;20.002;2022-07-04T07:48:36;9.93;;;7.77;;
34920;SDS011;21128;50.016;20.002;2022-07-04T07:51:03;9.73;;;7.47;;
34920;SDS011;21128;50.016;20.002;2022-07-04T07:53:30;10.53;;;7.50;;
34920;SDS011;21128;50.016;20.002;2022-07-04T07:55:57;8.33;;;7.00;;
34920;SDS011;21128;50.016;20.002;2022-07-04T07:58:24;10.07;;;7.27;;
34920;SDS011;21128;50.016;20.002;2022-07-04T08:00:50;7.27;;;5.93;;
34920;SDS011;21128;50.016;20.002;2022-07-04T08:03:17;8.33;;;6.95;;
34920;SDS011;21128;50.016;20.002;2022-07-04T08:06:02;8.50;;;6.90;;
34920;SDS011;21128;50.016;20.002;2022-07-04T08:08:29;10.33;;;6.30;;
34920;SDS011;21128;50.016;20.002;2022-07-04T08:10:56;6.78;;;6.08;;
34920;SDS011;21128;50.016;20.002;2022-07-04T08:13:29;8.90;;;6.07;;
34920;SDS011;21128;50.016;20.002;2022-07-04T08:15:56;8.77;;;6.27;;
34920;SDS011;21128;50.016;20.002;2022-07-04T08:18:29;9.13;;;6.00;;
34920;SDS011;21128;50.016;20.002;2022-07-04T08:21:03;8.80;;;5.83;;
34920;SDS011;21128;50.016;20.002;2022-07-04T08:23:31;6.33;;;5.30;;
34920;SDS011;21128;50.016;20.002;2022-07-04T08:25:59;9.93;;;5.77;;
34920;SDS011;21128;50.016;20.002;2022-07-04T08:28:27;8.33;;;5.87;;
34920;SDS011;21128;50.016;20.002;2022-07-04T08:31:02;12.00;;;6.60;;
34920;SDS011;21128;50.016;20.002;2022-07-04T08:33:30;6.47;;;5.27;;
34920;SDS011;21128;50.016;20.002;2022-07-04T08:36:04;5.87;;;5.27;;
34920;SDS011;21128;50.016;20.002;2022-07-04T08:38:31;8.65;;;5.20;;
34920;SDS011;21128;50.016;20.002;2022-07-04T08:40:58;8.20;;;5.70;;
34920;SDS011;21128;50.016;20.002;2022-07-04T08:43:28;7.63;;;5.23;;
34920;SDS011;21128;50.016;20.002;2022-07-04T08:46:00;7.85;;;5.00;;
34920;SDS011;21128;50.016;20.002;2022-07-04T08:48:30;7.93;;;5.37;;
34920;SDS011;21128;50.016;20.002;2022-07-04T08:51:18;7.93;;;5.23;;
34920;SDS011;21128;50.016;20.002;2022-07-04T08:53:52;6.53;;;5.37;;
34920;SDS011;21128;50.016;20.002;2022-07-04T08:56:23;6.57;;;5.53;;
34920;SDS011;21128;50.016;20.002;2022-07-04T08:59:09;6.90;;;5.67;;
34920;SDS011;21128;50.016;20.002;2022-07-04T09:01:39;9.67;;;5.60;;
34920;SDS011;21128;50.016;20.002;2022-07-04T09:04:06;8.00;;;5.20;;
34920;SDS011;21128;50.016;20.002;2022-07-04T09:06:34;8.00;;;5.00;;
34920;SDS011;21128;50.016;20.002;2022-07-04T09:09:01;5.83;;;4.07;;
34920;SDS011;21128;50.016;20.002;2022-07-04T09:11:28;6.60;;;4.10;;
34920;SDS011;21128;50.016;20.002;2022-07-04T09:13:56;6.00;;;4.87;;
34920;SDS011;21128;50.016;20.002;2022-07-04T09:16:24;12.57;;;5.00;;
34920;SDS011;21128;50.016;20.002;2022-07-04T09:18:57;6.53;;;4.90;;
34920;SDS011;21128;50.016;20.002;2022-07-04T09:21:44;6.03;;;4.60;;
34920;SDS011;21128;50.016;20.002;2022-07-04T09:24:12;7.87;;;4.77;;
34920;SDS011;21128;50.016;20.002;2022-07-04T09:26:40;7.28;;;4.80;;
34920;SDS011;21128;50.016;20.002;2022-07-04T09:29:10;5.80;;;4.60;;
34920;SDS011;21128;50.016;20.002;2022-07-04T09:31:44;6.00;;;4.00;;
34920;SDS011;21128;50.016;20.002;2022-07-04T09:34:11;6.17;;;4.40;;
34920;SDS011;21128;50.016;20.002;2022-07-04T09:36:51;7.17;;;4.20;;
34920;SDS011;21128;50.016;20.002;2022-07-04T09:39:22;10.83;;;4.57;;
34920;SDS011;21128;50.016;20.002;2022-07-04T09:41:58;5.95;;;4.75;;
34920;SDS011;21128;50.016;20.002;2022-07-04T09:44:47;4.63;;;4.20;;
34920;SDS011;21128;50.016;20.002;2022-07-04T09:47:23;4.07;;;3.67;;
34920;SDS011;21128;50.016;20.002;2022-07-04T09:49:59;5.35;;;3.75;;
34920;SDS011;21128;50.016;20.002;2022-07-04T09:53:25;5.00;;;4.23;;
34920;SDS011;21128;50.016;20.002;2022-07-04T09:58:00;5.27;;;4.23;;
34920;SDS011;21128;50.016;20.002;2022-07-04T10:00:30;5.23;;;3.90;;
34920;SDS011;21128;50.016;20.002;2022-07-04T10:06:04;5.93;;;4.07;;
34920;SDS011;21128;50.016;20.002;2022-07-04T10:08:37;6.43;;;5.20;;
34920;SDS011;21128;50.016;20.002;2022-07-04T10:11:08;7.70;;;3.53;;
34920;SDS011;21128;50.016;20.002;2022-07-04T10:13:37;5.23;;;3.50;;
34920;SDS011;21128;50.016;20.002;2022-07-04T10:16:04;5.60;;;3.53;;
34920;SDS011;21128;50.016;20.002;2022-07-04T10:18:33;6.85;;;3.65;;
34920;SDS011;21128;50.016;20.002;2022-07-04T10:21:07;3.90;;;2.80;;
34920;SDS011;21128;50.016;20.002;2022-07-04T10:23:41;5.13;;;3.00;;
34920;SDS011;21128;50.016;20.002;2022-07-04T10:26:09;3.80;;;2.70;;
34920;SDS011;21128;50.016;20.002;2022-07-04T10:28:37;4.27;;;2.63;;
34920;SDS011;21128;50.016;20.002;2022-07-04T10:31:05;4.83;;;3.13;;
34920;SDS011;21128;50.016;20.002;2022-07-04T10:33:32;4.00;;;3.23;;
34920;SDS011;21128;50.016;20.002;2022-07-04T10:38:52;3.07;;;2.77;;
34920;SDS011;21128;50.016;20.002;2022-07-04T10:41:27;3.10;;;2.60;;
34920;SDS011;21128;50.016;20.002;2022-07-04T10:44:05;2.77;;;2.50;;
34920;SDS011;21128;50.016;20.002;2022-07-04T10:46:47;4.23;;;2.57;;
34920;SDS011;21128;50.016;20.002;2022-07-04T10:49:20;3.47;;;2.73;;
34920;SDS011;21128;50.016;20.002;2022-07-04T10:54:38;5.50;;;2.90;;
34920;SDS011;21128;50.016;20.002;2022-07-04T11:00:01;3.95;;;3.05;;
34920;SDS011;21128;50.016;20.002;2022-07-04T11:02:31;3.40;;;2.53;;
34920;SDS011;21128;50.016;20.002;2022-07-04T11:05:03;4.90;;;3.10;;
34920;SDS011;21128;50.016;20.002;2022-07-04T11:17:52;5.03;;;3.30;;
34920;SDS011;21128;50.016;20.002;2022-07-04T11:20:34;6.70;;;3.20;;
34920;SDS011;21128;50.016;20.002;2022-07-04T11:23:06;4.37;;;2.97;;
34920;SDS011;21128;50.016;20.002;2022-07-04T11:25:44;5.63;;;3.37;;
34920;SDS011;21128;50.016;20.002;2022-07-04T11:30:52;4.10;;;2.93;;
34920;SDS011;21128;50.016;20.002;2022-07-04T11:33:25;5.35;;;2.37;;
34920;SDS011;21128;50.016;20.002;2022-07-04T11:38:49;3.70;;;2.20;;
34920;SDS011;21128;50.016;20.002;2022-07-04T11:41:27;3.57;;;2.47;;
34920;SDS011;21128;50.016;20.002;2022-07-04T11:44:18;2.33;;;2.07;;
34920;SDS011;21128;50.016;20.002;2022-07-04T11:47:08;4.60;;;2.20;;
34920;SDS011;21128;50.016;20.002;2022-07-04T11:49:40;3.33;;;2.30;;
34920;SDS011;21128;50.016;20.002;2022-07-04T11:52:13;2.73;;;2.40;;
34920;SDS011;21128;50.016;20.002;2022-07-04T11:54:42;3.70;;;2.27;;
34920;SDS011;21128;50.016;20.002;2022-07-04T11:57:17;4.33;;;2.57;;
34920;SDS011;21128;50.016;20.002;2022-07-04T11:59:51;3.47;;;2.47;;
34920;SDS011;21128;50.016;20.002;2022-07-04T12:02:23;3.13;;;2.80;;
34920;SDS011;21128;50.016;20.002;2022-07-04T12:04:51;3.23;;;2.73;;
34920;SDS011;21128;50.016;20.002;2022-07-04T12:07:19;3.70;;;2.50;;
34920;SDS011;21128;50.016;20.002;2022-07-04T12:09:48;3.03;;;2.50;;
34920;SDS011;21128;50.016;20.002;2022-07-04T12:12:15;2.50;;;2.30;;
34920;SDS011;21128;50.016;20.002;2022-07-04T12:15:18;2.40;;;2.20;;
34920;SDS011;21128;50.016;20.002;2022-07-04T12:17:37;2.87;;;2.30;;
34920;SDS011;21128;50.016;20.002;2022-07-04T12:20:12;5.23;;;2.83;;
34920;SDS011;21128;50.016;20.002;2022-07-04T12:22:41;3.73;;;2.80;;
34920;SDS011;21128;50.016;20.002;2022-07-04T12:25:59;4.37;;;2.67;;
34920;SDS011;21128;50.016;20.002;2022-07-04T12:28:14;3.20;;;2.90;;
34920;SDS011;21128;50.016;20.002;2022-07-04T12:30:50;3.30;;;3.00;;
34920;SDS011;21128;50.016;20.002;2022-07-04T12:36:05;2.85;;;2.55;;
34920;SDS011;21128;50.016;20.002;2022-07-04T12:38:33;5.00;;;2.70;;
34920;SDS011;21128;50.016;20.002;2022-07-04T12:41:03;3.23;;;2.87;;
34920;SDS011;21128;50.016;20.002;2022-07-04T12:46:09;2.80;;;2.50;;
34920;SDS011;21128;50.016;20.002;2022-07-04T12:48:37;2.40;;;2.20;;
34920;SDS011;21128;50.016;20.002;2022-07-04T12:51:21;4.07;;;2.90;;
34920;SDS011;21128;50.016;20.002;2022-07-04T12:53:49;2.93;;;2.53;;
34920;SDS011;21128;50.016;20.002;2022-07-04T12:56:35;3.43;;;2.80;;
34920;SDS011;21128;50.016;20.002;2022-07-04T12:59:06;3.10;;;2.80;;
34920;SDS011;21128;50.016;20.002;2022-07-04T13:01:34;3.60;;;2.93;;
34920;SDS011;21128;50.016;20.002;2022-07-04T13:04:02;3.23;;;2.93;;
34920;SDS011;21128;50.016;20.002;2022-07-04T13:06:29;3.37;;;3.03;;
34920;SDS011;21128;50.016;20.002;2022-07-04T13:08:57;5.90;;;3.57;;
34920;SDS011;21128;50.016;20.002;2022-07-04T13:11:24;4.97;;;3.17;;
34920;SDS011;21128;50.016;20.002;2022-07-04T13:14:10;3.87;;;2.60;;
34920;SDS011;21128;50.016;20.002;2022-07-04T13:16:37;3.20;;;2.30;;
34920;SDS011;21128;50.016;20.002;2022-07-04T13:19:03;5.23;;;2.57;;
34920;SDS011;21128;50.016;20.002;2022-07-04T13:21:30;2.90;;;2.30;;
34920;SDS011;21128;50.016;20.002;2022-07-04T13:23:57;3.22;;;2.35;;
34920;SDS011;21128;50.016;20.002;2022-07-04T13:26:31;3.57;;;2.47;;
34920;SDS011;21128;50.016;20.002;2022-07-04T13:28:58;3.97;;;2.67;;
34920;SDS011;21128;50.016;20.002;2022-07-04T13:31:34;2.93;;;2.20;;
34920;SDS011;21128;50.016;20.002;2022-07-04T13:34:01;2.72;;;2.22;;
34920;SDS011;21128;50.016;20.002;2022-07-04T13:36:40;3.50;;;2.67;;
34920;SDS011;21128;50.016;20.002;2022-07-04T13:39:07;3.13;;;2.40;;
34920;SDS011;21128;50.016;20.002;2022-07-04T13:41:34;4.33;;;2.70;;
34920;SDS011;21128;50.016;20.002;2022-07-04T13:44:01;4.67;;;2.33;;
34920;SDS011;21128;50.016;20.002;2022-07-04T13:46:30;4.17;;;2.67;;
34920;SDS011;21128;50.016;20.002;2022-07-04T13:49:02;4.07;;;2.47;;
34920;SDS011;21128;50.016;20.002;2022-07-04T13:51:30;3.20;;;2.57;;
34920;SDS011;21128;50.016;20.002;2022-07-04T13:53:57;3.63;;;2.87;;
34920;SDS011;21128;50.016;20.002;2022-07-04T13:56:24;4.43;;;2.40;;
34920;SDS011;21128;50.016;20.002;2022-07-04T13:58:50;6.00;;;2.40;;
34920;SDS011;21128;50.016;20.002;2022-07-04T14:01:17;7.60;;;2.47;;
34920;SDS011;21128;50.016;20.002;2022-07-04T14:03:46;2.70;;;2.50;;
34920;SDS011;21128;50.016;20.002;2022-07-04T14:06:15;7.25;;;2.30;;
34920;SDS011;21128;50.016;20.002;2022-07-04T14:08:43;3.50;;;2.43;;
34920;SDS011;21128;50.016;20.002;2022-07-04T14:11:10;2.70;;;2.47;;
34920;SDS011;21128;50.016;20.002;2022-07-04T14:13:37;3.67;;;2.63;;
34920;SDS011;21128;50.016;20.002;2022-07-04T14:16:05;4.50;;;2.87;;
34920;SDS011;21128;50.016;20.002;2022-07-04T14:18:33;3.87;;;2.50;;
34920;SDS011;21128;50.016;20.002;2022-07-04T14:21:00;2.60;;;2.40;;
34920;SDS011;21128;50.016;20.002;2022-07-04T14:23:28;4.07;;;2.53;;
34920;SDS011;21128;50.016;20.002;2022-07-04T14:26:11;3.27;;;2.40;;
34920;SDS011;21128;50.016;20.002;2022-07-04T14:28:46;8.50;;;2.60;;
34920;SDS011;21128;50.016;20.002;2022-07-04T14:31:19;3.20;;;2.90;;
34920;SDS011;21128;50.016;20.002;2022-07-04T14:33:45;2.73;;;2.20;;
34920;SDS011;21128;50.016;20.002;2022-07-04T14:36:29;9.63;;;2.33;;
34920;SDS011;21128;50.016;20.002;2022-07-04T14:38:55;4.10;;;2.80;;
34920;SDS011;21128;50.016;20.002;2022-07-04T14:41:22;3.90;;;2.53;;
34920;SDS011;21128;50.016;20.002;2022-07-04T14:43:49;5.42;;;2.60;;
34920;SDS011;21128;50.016;20.002;2022-07-04T14:46:16;4.43;;;2.13;;
34920;SDS011;21128;50.016;20.002;2022-07-04T14:48:43;5.00;;;2.63;;
34920;SDS011;21128;50.016;20.002;2022-07-04T14:51:16;3.63;;;2.27;;
34920;SDS011;21128;50.016;20.002;2022-07-04T14:53:43;3.35;;;2.40;;
34920;SDS011;21128;50.016;20.002;2022-07-04T14:56:09;3.08;;;2.10;;
34920;SDS011;21128;50.016;20.002;2022-07-04T14:58:36;3.13;;;2.47;;
34920;SDS011;21128;50.016;20.002;2022-07-04T15:01:03;6.47;;;2.10;;
34920;SDS011;21128;50.016;20.002;2022-07-04T15:03:30;4.73;;;1.80;;
34920;SDS011;21128;50.016;20.002;2022-07-04T15:05:57;7.60;;;2.30;;
34920;SDS011;21128;50.016;20.002;2022-07-04T15:08:30;3.57;;;2.03;;
34920;SDS011;21128;50.016;20.002;2022-07-04T15:10:57;4.17;;;1.93;;
34920;SDS011;21128;50.016;20.002;2022-07-04T15:13:23;3.70;;;2.30;;
34920;SDS011;21128;50.016;20.002;2022-07-04T15:15:50;2.02;;;1.77;;
34920;SDS011;21128;50.016;20.002;2022-07-04T15:18:17;2.73;;;1.67;;
34920;SDS011;21128;50.016;20.002;2022-07-04T15:20:44;3.13;;;1.60;;
34920;SDS011;21128;50.016;20.002;2022-07-04T15:23:29;3.63;;;1.73;;
34920;SDS011;21128;50.016;20.002;2022-07-04T15:26:15;2.17;;;1.40;;
34920;SDS011;21128;50.016;20.002;2022-07-04T15:28:41;2.10;;;1.65;;